YPWR

Woomera Airfield

Airport
ICAO code
YPWR
IATA Code
UMR
Summary
ICAO Region
APAC
ICAO Territory
Location

Woomera, South Australia

Serving
Woomera
Elevation
548 ft
Coordinates
31° 8' 39" S , 136° 49' 1" E
Metar
YPWR 151930Z AUTO 15009KT 9999 // NCD 14/10 Q1023 RF00.0/000.0

Airport map

Aerial View

SKYbrary Partners:

Safety knowledge contributed by: